Terminal Aerodrome Forecast
Issued by NWS

Home | Current Version | Previous Version | Text Only | Print | Product List | Glossary On
Versions: 1 2 3 4 5 6 7 8 9 10 11 12 13 14 15 16 17
521
FTUS46 KHNX 142327
TAFFAT
TAF
KFAT 142327Z 1500/1524 09005KT 4SM HZ BKN200
     FM150600 00000KT 3SM BR SCT200
      TEMPO 1512/1516 1 1/2SM BR
     FM152000 VRB04KT 5SM HZ SKC=

USA.gov is the U.S. government's official web portal to all federal, state and local government web resources and services.